createdAt,value
2017-09-14T00:00:01.578Z,7.75
2017-09-14T00:01:04.082Z,6.35
2017-09-14T00:02:06.692Z,8.30
2017-09-14T00:03:09.294Z,7.25
2017-09-14T00:04:11.937Z,7.43
2017-09-14T00:05:15.190Z,6.97
2017-09-14T00:06:17.685Z,4.95
2017-09-14T00:07:20.961Z,6.95
2017-09-14T00:08:23.458Z,7.25
2017-09-14T00:09:25.962Z,4.53
2017-09-14T00:10:28.518Z,7.20
2017-09-14T00:11:31.021Z,4.82
2017-09-14T00:12:33.504Z,5.03
2017-09-14T00:13:36.753Z,7.12
2017-09-14T00:14:39.373Z,6.05
2017-09-14T00:15:42.477Z,7.30
2017-09-14T00:16:45.119Z,11.32
2017-09-14T00:17:47.611Z,5.37
2017-09-14T00:18:50.179Z,4.30
2017-09-14T00:19:52.689Z,10.32
2017-09-14T00:20:56.899Z,10.88
2017-09-14T00:22:00.488Z,6.47
2017-09-14T00:23:03.932Z,11.05
2017-09-14T00:24:06.433Z,11.00
2017-09-14T00:25:08.951Z,8.73
2017-09-14T00:26:11.475Z,12.43
2017-09-14T00:27:15.849Z,8.18
2017-09-14T00:28:18.331Z,13.18
2017-09-14T00:29:20.884Z,13.40
2017-09-14T00:30:23.411Z,13.35
2017-09-14T00:31:27.063Z,9.82
2017-09-14T00:32:29.578Z,13.27
2017-09-14T00:33:34.457Z,12.52
2017-09-14T00:34:37.752Z,11.57
2017-09-14T00:35:40.340Z,15.57
2017-09-14T00:36:42.877Z,13.90
2017-09-14T00:37:47.939Z,9.45
2017-09-14T00:38:50.434Z,9.80
2017-09-14T00:39:52.931Z,11.90
2017-09-14T00:40:56.237Z,9.07
2017-09-14T00:41:58.854Z,19.50
2017-09-14T00:43:01.344Z,16.48
2017-09-14T00:44:04.167Z,11.98
2017-09-14T00:45:06.894Z,13.90
2017-09-14T00:46:11.304Z,12.95
2017-09-14T00:47:14.555Z,9.48
2017-09-14T00:48:17.037Z,9.48
2017-09-14T00:49:19.530Z,14.77
2017-09-14T00:50:22.332Z,14.40
2017-09-14T00:51:24.937Z,17.05
2017-09-14T00:52:27.524Z,15.95
2017-09-14T00:53:30.811Z,16.85
2017-09-14T00:54:34.219Z,15.07
2017-09-14T00:55:36.727Z,11.48
2017-09-14T00:56:39.220Z,18.65
2017-09-14T00:57:42.493Z,10.13
2017-09-14T00:58:44.978Z,10.25
2017-09-14T00:59:48.391Z,10.52
2017-09-14T01:00:51.016Z,16.42
2017-09-14T01:01:54.299Z,11.90
2017-09-14T01:02:58.337Z,14.93
2017-09-14T01:04:00.828Z,20.90
2017-09-14T01:05:03.324Z,14.30
2017-09-14T01:06:05.820Z,26.00
2017-09-14T01:07:09.188Z,21.95
2017-09-14T01:08:11.670Z,19.42
2017-09-14T01:09:15.048Z,15.07
2017-09-14T01:10:18.313Z,17.17
2017-09-14T01:11:20.985Z,15.23
2017-09-14T01:12:23.761Z,17.15
2017-09-14T01:13:26.417Z,16.87
2017-09-14T01:14:28.894Z,19.73
2017-09-14T01:15:31.787Z,25.75
2017-09-14T01:16:35.630Z,22.35
2017-09-14T01:17:38.217Z,21.12
2017-09-14T01:18:40.707Z,18.45
2017-09-14T01:19:43.972Z,22.67
2017-09-14T01:20:46.455Z,23.95
2017-09-14T01:21:49.814Z,20.62
2017-09-14T01:22:52.343Z,16.95
2017-09-14T01:23:54.848Z,21.50
2017-09-14T01:24:57.523Z,27.52
2017-09-14T01:26:00.019Z,26.67
2017-09-14T01:27:03.392Z,19.10
2017-09-14T01:28:05.971Z,19.70
2017-09-14T01:29:09.277Z,23.27
2017-09-14T01:30:11.812Z,26.90
2017-09-14T01:31:15.084Z,26.95
2017-09-14T01:32:17.597Z,23.83
2017-09-14T01:33:20.085Z,36.35
2017-09-14T01:34:22.573Z,23.83
2017-09-14T01:35:25.153Z,26.20
2017-09-14T01:36:27.760Z,24.23
2017-09-14T01:37:30.263Z,24.95
2017-09-14T01:38:32.765Z,27.87
2017-09-14T01:39:36.275Z,23.62
2017-09-14T01:40:38.823Z,25.95
2017-09-14T01:41:42.085Z,26.27
2017-09-14T01:42:44.586Z,21.45
2017-09-14T01:43:47.172Z,24.77
2017-09-14T01:44:49.857Z,29.85
2017-09-14T01:45:52.372Z,28.58
2017-09-14T01:46:55.626Z,30.67
2017-09-14T01:47:58.188Z,27.13
2017-09-14T01:49:00.673Z,29.37
2017-09-14T01:50:03.217Z,29.58
2017-09-14T01:51:05.736Z,34.28
2017-09-14T01:52:08.252Z,42.42
2017-09-14T01:53:10.735Z,28.05
2017-09-14T01:54:13.471Z,28.35
2017-09-14T01:55:15.976Z,27.02
2017-09-14T01:56:18.511Z,31.48
2017-09-14T01:57:21.083Z,30.52
2017-09-14T01:58:23.648Z,28.67
2017-09-14T01:59:26.224Z,26.25
2017-09-14T02:00:29.480Z,33.22
2017-09-14T02:01:31.983Z,45.45
2017-09-14T02:02:34.543Z,28.17
2017-09-14T02:03:37.064Z,25.70
2017-09-14T02:04:39.558Z,27.25
2017-09-14T02:05:42.082Z,28.10
2017-09-14T02:06:45.324Z,39.85
2017-09-14T02:07:47.816Z,31.50
2017-09-14T02:08:51.095Z,33.80
2017-09-14T02:09:54.371Z,24.30
2017-09-14T02:10:57.620Z,27.08
2017-09-14T02:12:00.460Z,19.62
2017-09-14T02:13:02.960Z,39.58
2017-09-14T02:14:05.454Z,22.05
2017-09-14T02:15:08.058Z,35.88
2017-09-14T02:16:10.543Z,25.77
2017-09-14T02:17:13.024Z,34.30
2017-09-14T02:18:15.508Z,24.00
2017-09-14T02:19:18.074Z,30.05
2017-09-14T02:20:21.375Z,27.25
2017-09-14T02:21:23.920Z,23.20
2017-09-14T02:22:27.187Z,24.90
2017-09-14T02:23:29.690Z,32.97
2017-09-14T02:24:32.947Z,21.70
2017-09-14T02:25:36.946Z,25.15
2017-09-14T02:26:39.520Z,19.62
2017-09-14T02:27:42.772Z,23.75
2017-09-14T02:28:45.267Z,24.65
2017-09-14T02:29:47.880Z,25.10
2017-09-14T02:30:50.369Z,41.37
2017-09-14T02:31:52.869Z,21.60
2017-09-14T02:32:55.413Z,27.02
2017-09-14T02:33:57.899Z,24.67
2017-09-14T02:35:00.474Z,29.58
2017-09-14T02:36:02.977Z,19.52
2017-09-14T02:37:05.488Z,25.90
2017-09-14T02:38:07.969Z,22.75
2017-09-14T02:39:10.525Z,28.55
2017-09-14T02:40:14.526Z,25.25
2017-09-14T02:41:17.768Z,33.75
2017-09-14T02:42:20.270Z,23.98
2017-09-14T02:43:24.281Z,16.90
2017-09-14T02:44:26.769Z,17.00
2017-09-14T02:45:30.020Z,29.80
2017-09-14T02:46:32.538Z,26.17
2017-09-14T02:47:35.040Z,26.23
2017-09-14T02:48:37.522Z,27.40
2017-09-14T02:49:40.055Z,21.85
2017-09-14T02:50:42.532Z,26.23
2017-09-14T02:51:45.110Z,24.55
2017-09-14T02:52:48.469Z,24.60
2017-09-14T02:53:51.056Z,22.23
2017-09-14T02:54:53.529Z,12.90
2017-09-14T02:55:56.345Z,23.65
2017-09-14T02:56:58.848Z,18.42
2017-09-14T02:58:01.898Z,23.35
2017-09-14T02:59:04.376Z,34.80
2017-09-14T03:00:06.859Z,26.25
2017-09-14T03:01:09.368Z,26.12
2017-09-14T03:02:12.781Z,21.70
2017-09-14T03:03:15.275Z,25.23
2017-09-14T03:04:17.843Z,23.65
2017-09-14T03:05:20.388Z,23.40
2017-09-14T03:06:22.858Z,15.68
2017-09-14T03:07:25.351Z,28.85
2017-09-14T03:08:27.924Z,22.67
2017-09-14T03:09:30.427Z,25.20
2017-09-14T03:10:33.800Z,20.65
2017-09-14T03:11:37.039Z,24.45
2017-09-14T03:12:40.343Z,26.80
2017-09-14T03:13:42.824Z,28.75
2017-09-14T03:14:45.355Z,31.45
2017-09-14T03:15:47.837Z,21.05
2017-09-14T03:16:50.418Z,25.37
2017-09-14T03:17:52.895Z,21.90
2017-09-14T03:18:55.419Z,19.92
2017-09-14T03:19:57.909Z,30.33
2017-09-14T03:21:01.897Z,28.85
2017-09-14T03:22:05.185Z,25.20
2017-09-14T03:23:07.674Z,28.95
2017-09-14T03:24:10.217Z,24.20
2017-09-14T03:25:12.696Z,23.58
2017-09-14T03:26:15.993Z,33.00
2017-09-14T03:27:19.292Z,32.30
2017-09-14T03:28:22.631Z,22.48
2017-09-14T03:29:25.120Z,30.35
2017-09-14T03:30:27.673Z,24.75
2017-09-14T03:31:30.159Z,27.73
2017-09-14T03:32:33.525Z,31.37
2017-09-14T03:33:36.858Z,21.55
2017-09-14T03:34:39.352Z,27.17
2017-09-14T03:35:41.835Z,26.83
2017-09-14T03:36:44.385Z,38.65
2017-09-14T03:37:46.893Z,34.55
2017-09-14T03:38:50.265Z,23.15
2017-09-14T03:39:53.359Z,29.70
2017-09-14T03:40:56.705Z,35.80
2017-09-14T03:41:59.201Z,41.67
2017-09-14T03:43:02.797Z,26.73
2017-09-14T03:44:06.054Z,28.23
2017-09-14T03:45:09.113Z,29.80
2017-09-14T03:46:11.613Z,36.83
2017-09-14T03:47:15.699Z,32.22
2017-09-14T03:48:18.192Z,30.00
2017-09-14T03:49:20.691Z,31.23
2017-09-14T03:50:23.203Z,28.52
2017-09-14T03:51:25.765Z,32.88
2017-09-14T03:52:28.392Z,31.48
2017-09-14T03:53:30.997Z,36.85
2017-09-14T03:54:33.520Z,27.20
2017-09-14T03:55:36.084Z,32.92
2017-09-14T03:56:38.618Z,26.77
2017-09-14T03:57:41.124Z,34.88
2017-09-14T03:58:43.602Z,31.30
2017-09-14T03:59:46.205Z,38.85
2017-09-14T04:00:48.716Z,32.03
2017-09-14T04:01:51.288Z,37.13
2017-09-14T04:02:53.768Z,33.50
2017-09-14T04:03:56.362Z,29.25
2017-09-14T04:04:58.873Z,35.17
2017-09-14T04:06:01.379Z,45.15
2017-09-14T04:07:03.892Z,26.10
2017-09-14T04:08:07.261Z,43.28
2017-09-14T04:09:09.766Z,32.10
2017-09-14T04:10:12.398Z,24.95
2017-09-14T04:11:14.884Z,29.52
2017-09-14T04:12:18.267Z,26.25
2017-09-14T04:13:21.533Z,31.30
2017-09-14T04:14:24.026Z,40.70
2017-09-14T04:15:26.525Z,29.20
2017-09-14T04:16:29.732Z,32.15
2017-09-14T04:17:32.211Z,35.92
2017-09-14T04:18:34.701Z,36.72
2017-09-14T04:19:37.969Z,30.62
2017-09-14T04:20:40.446Z,42.70
2017-09-14T04:21:43.729Z,32.70
2017-09-14T04:22:47.085Z,36.95
2017-09-14T04:23:49.572Z,33.22
2017-09-14T04:24:52.932Z,30.45
2017-09-14T04:25:56.942Z,33.15
2017-09-14T04:26:59.425Z,26.20
2017-09-14T04:28:02.680Z,41.85
2017-09-14T04:29:06.261Z,34.67
2017-09-14T04:30:08.827Z,36.80
2017-09-14T04:31:11.518Z,40.22
2017-09-14T04:32:14.030Z,33.10
2017-09-14T04:33:16.635Z,33.00
2017-09-14T04:34:19.123Z,49.85
2017-09-14T04:35:21.613Z,40.70
2017-09-14T04:36:24.138Z,32.80
2017-09-14T04:37:26.619Z,39.35
2017-09-14T04:38:29.206Z,39.55
2017-09-14T04:39:31.826Z,40.05
2017-09-14T04:40:34.299Z,43.60
2017-09-14T04:41:36.791Z,46.75
2017-09-14T04:42:40.057Z,43.20
2017-09-14T04:43:42.553Z,35.30
2017-09-14T04:44:45.859Z,37.47
2017-09-14T04:45:48.471Z,41.95
2017-09-14T04:46:50.964Z,40.67
2017-09-14T04:47:55.345Z,49.55
2017-09-14T04:48:57.837Z,46.72
2017-09-14T04:50:02.212Z,42.55
2017-09-14T04:51:04.769Z,40.15
2017-09-14T04:52:07.468Z,42.58
2017-09-14T04:53:09.966Z,44.95
2017-09-14T04:54:12.596Z,47.15
2017-09-14T04:55:16.599Z,37.58
2017-09-14T04:56:19.088Z,41.05
2017-09-14T04:57:22.365Z,34.65
2017-09-14T04:58:25.649Z,35.70
2017-09-14T04:59:28.936Z,38.53
2017-09-14T05:00:31.600Z,32.58
2017-09-14T05:01:34.915Z,38.30
2017-09-14T05:02:37.519Z,48.70
2017-09-14T05:03:40.047Z,38.85
2017-09-14T05:04:42.805Z,53.55
2017-09-14T05:05:46.064Z,39.20
2017-09-14T05:06:48.549Z,53.40
2017-09-14T05:07:51.805Z,38.17
2017-09-14T05:08:54.288Z,54.47
2017-09-14T05:09:57.559Z,46.25
2017-09-14T05:11:00.108Z,37.50
2017-09-14T05:12:02.593Z,35.50
2017-09-14T05:13:05.147Z,31.65
2017-09-14T05:14:08.403Z,52.35
2017-09-14T05:15:10.956Z,47.53
2017-09-14T05:16:13.557Z,55.00
2017-09-14T05:17:16.055Z,45.72
2017-09-14T05:18:19.315Z,36.65
2017-09-14T05:19:21.809Z,31.23
2017-09-14T05:20:25.091Z,27.73
2017-09-14T05:21:28.357Z,24.85
2017-09-14T05:22:31.662Z,45.88
2017-09-14T05:23:34.920Z,35.95
2017-09-14T05:24:37.427Z,42.95
2017-09-14T05:25:40.056Z,35.63
2017-09-14T05:26:42.566Z,35.05
2017-09-14T05:27:45.181Z,29.98
2017-09-14T05:28:47.687Z,27.92
2017-09-14T05:29:50.321Z,19.83
2017-09-14T05:30:53.597Z,28.48
2017-09-14T05:31:58.742Z,36.72
2017-09-14T05:33:02.028Z,35.13
2017-09-14T05:34:05.662Z,28.85
2017-09-14T05:35:08.164Z,25.27
2017-09-14T05:36:10.739Z,45.45
2017-09-14T05:37:13.280Z,38.47
2017-09-14T05:38:15.760Z,41.35
2017-09-14T05:39:18.336Z,30.90
2017-09-14T05:40:20.989Z,35.75
2017-09-14T05:41:23.481Z,28.92
2017-09-14T05:42:26.751Z,31.37
2017-09-14T05:43:29.236Z,21.33
2017-09-14T05:44:32.815Z,21.67
2017-09-14T05:45:35.320Z,18.95
2017-09-14T05:46:37.835Z,18.37
2017-09-14T05:47:40.358Z,24.17
2017-09-14T05:48:42.873Z,14.35
2017-09-14T05:49:45.387Z,18.50
2017-09-14T05:50:48.068Z,19.37
2017-09-14T05:51:50.563Z,17.48
2017-09-14T05:52:53.063Z,15.82
2017-09-14T05:53:56.336Z,23.00
2017-09-14T05:54:59.704Z,19.52
2017-09-14T05:56:02.194Z,18.15
2017-09-14T05:57:05.441Z,10.13
2017-09-14T05:58:08.088Z,13.62
2017-09-14T05:59:10.749Z,22.08
2017-09-14T06:00:13.272Z,19.50
2017-09-14T06:01:16.531Z,19.55
2017-09-14T06:02:19.019Z,26.00
2017-09-14T06:03:21.561Z,18.95
2017-09-14T06:04:24.080Z,14.87
2017-09-14T06:05:26.809Z,14.02
2017-09-14T06:06:29.321Z,12.25
2017-09-14T06:07:31.815Z,17.80
2017-09-14T06:08:34.339Z,23.60
2017-09-14T06:09:37.610Z,17.02
2017-09-14T06:10:40.870Z,26.40
2017-09-14T06:11:43.555Z,18.30
2017-09-14T06:12:46.040Z,19.62
2017-09-14T06:13:49.293Z,19.05
2017-09-14T06:14:51.798Z,19.20
2017-09-14T06:15:54.315Z,14.05
2017-09-14T06:16:56.850Z,17.70
2017-09-14T06:17:59.332Z,14.65
2017-09-14T06:19:01.845Z,19.65
2017-09-14T06:20:05.115Z,15.82
2017-09-14T06:21:08.412Z,13.90
2017-09-14T06:22:11.695Z,21.25
2017-09-14T06:23:14.947Z,13.20
2017-09-14T06:24:17.497Z,26.15
2017-09-14T06:25:19.984Z,15.88
2017-09-14T06:26:22.552Z,15.35
2017-09-14T06:27:25.081Z,25.35
2017-09-14T06:28:27.683Z,17.08
2017-09-14T06:29:30.160Z,20.08
2017-09-14T06:30:32.818Z,22.58
2017-09-14T06:31:35.306Z,18.08
2017-09-14T06:32:38.596Z,16.02
2017-09-14T06:33:41.843Z,17.05
2017-09-14T06:34:44.394Z,14.87
2017-09-14T06:35:46.877Z,27.87
2017-09-14T06:36:49.511Z,29.75
2017-09-14T06:37:52.111Z,14.57
2017-09-14T06:38:54.680Z,21.67
2017-09-14T06:39:57.278Z,17.30
2017-09-14T06:41:00.527Z,13.65
2017-09-14T06:42:03.038Z,14.48
2017-09-14T06:43:05.678Z,23.23
2017-09-14T06:44:08.391Z,14.38
2017-09-14T06:45:10.868Z,24.37
2017-09-14T06:46:13.446Z,20.25
2017-09-14T06:47:15.926Z,14.98
2017-09-14T06:48:18.454Z,15.63
2017-09-14T06:49:20.942Z,12.45
2017-09-14T06:50:23.421Z,22.62
2017-09-14T06:51:25.991Z,13.57
2017-09-14T06:52:29.240Z,20.02
2017-09-14T06:53:31.735Z,20.58
2017-09-14T06:54:34.342Z,23.00
2017-09-14T06:55:37.651Z,16.05
2017-09-14T06:56:40.129Z,26.90
2017-09-14T06:57:42.607Z,20.58
2017-09-14T06:58:45.104Z,14.27
2017-09-14T06:59:47.657Z,11.05
2017-09-14T07:00:50.264Z,15.80
2017-09-14T07:01:52.765Z,19.80
2017-09-14T07:02:55.254Z,15.65
2017-09-14T07:03:57.808Z,24.42
2017-09-14T07:05:00.317Z,16.20
2017-09-14T07:06:03.587Z,12.35
2017-09-14T07:07:06.108Z,16.62
2017-09-14T07:08:08.956Z,30.00
2017-09-14T07:09:11.485Z,15.05
2017-09-14T07:10:14.034Z,14.38
2017-09-14T07:11:16.527Z,20.12
2017-09-14T07:12:19.783Z,16.90
2017-09-14T07:13:22.292Z,19.27
2017-09-14T07:14:24.849Z,14.02
2017-09-14T07:15:28.126Z,18.05
2017-09-14T07:16:31.380Z,21.02
2017-09-14T07:17:33.866Z,17.98
2017-09-14T07:18:36.395Z,9.75
2017-09-14T07:19:38.897Z,17.23
2017-09-14T07:20:42.185Z,12.13
2017-09-14T07:21:44.838Z,18.70
2017-09-14T07:22:47.429Z,11.80
2017-09-14T07:23:50.771Z,19.25
2017-09-14T07:24:53.343Z,11.30
2017-09-14T07:25:55.842Z,17.87
2017-09-14T07:26:59.096Z,11.65
2017-09-14T07:28:01.646Z,27.85
2017-09-14T07:29:04.258Z,23.02
2017-09-14T07:30:06.853Z,15.80
2017-09-14T07:31:09.340Z,19.87
2017-09-14T07:32:11.845Z,23.58
2017-09-14T07:33:14.493Z,18.55
2017-09-14T07:34:16.996Z,16.48
2017-09-14T07:35:20.339Z,20.05
2017-09-14T07:36:22.837Z,24.73
2017-09-14T07:37:25.376Z,19.08
2017-09-14T07:38:27.890Z,12.70
2017-09-14T07:39:30.379Z,15.27
2017-09-14T07:40:32.900Z,16.12
2017-09-14T07:41:36.396Z,16.05
2017-09-14T07:42:39.687Z,19.00
2017-09-14T07:43:43.066Z,26.65
2017-09-14T07:44:46.353Z,17.62
2017-09-14T07:45:49.729Z,21.58
2017-09-14T07:46:52.224Z,18.83
2017-09-14T07:47:54.707Z,13.57
2017-09-14T07:48:57.193Z,18.20
2017-09-14T07:49:59.796Z,16.48
2017-09-14T07:51:03.095Z,15.30
2017-09-14T07:52:06.434Z,16.05
2017-09-14T07:53:08.961Z,17.67
2017-09-14T07:54:11.631Z,13.05
2017-09-14T07:55:14.128Z,10.27
2017-09-14T07:56:16.696Z,15.07
2017-09-14T07:57:19.186Z,7.82
2017-09-14T07:58:21.758Z,10.15
2017-09-14T07:59:24.257Z,10.00
2017-09-14T08:00:26.736Z,10.80
2017-09-14T08:01:29.970Z,8.13
2017-09-14T08:02:32.509Z,5.12
2017-09-14T08:03:35.036Z,6.80
2017-09-14T08:04:37.531Z,7.07
2017-09-14T08:05:40.036Z,4.95
2017-09-14T08:06:43.396Z,9.82
2017-09-14T08:07:45.996Z,8.23
2017-09-14T08:08:49.431Z,11.50
2017-09-14T08:09:52.027Z,8.50
2017-09-14T08:10:54.623Z,5.45
2017-09-14T08:11:57.879Z,6.45
2017-09-14T08:13:00.440Z,6.72
2017-09-14T08:14:02.928Z,3.10
2017-09-14T08:15:06.912Z,6.65
2017-09-14T08:16:09.408Z,3.03
2017-09-14T08:17:12.905Z,4.45
2017-09-14T08:18:15.405Z,5.03
2017-09-14T08:19:18.047Z,6.12
2017-09-14T08:20:20.541Z,3.58
2017-09-14T08:21:23.280Z,10.80
2017-09-14T08:22:25.766Z,3.17
2017-09-14T08:23:29.293Z,8.00
2017-09-14T08:24:31.779Z,3.40
2017-09-14T08:25:35.168Z,5.50
2017-09-14T08:26:38.529Z,7.82
2017-09-14T08:27:41.118Z,6.80
2017-09-14T08:28:44.582Z,7.90
2017-09-14T08:29:47.129Z,6.90
2017-09-14T08:30:49.637Z,6.75
2017-09-14T08:31:52.995Z,7.18
2017-09-14T08:32:55.488Z,5.72
2017-09-14T08:33:58.863Z,3.53
2017-09-14T08:35:01.366Z,2.25
2017-09-14T08:36:03.970Z,4.30
2017-09-14T08:37:06.638Z,2.45
2017-09-14T08:38:09.269Z,3.72
2017-09-14T08:39:11.792Z,3.33
2017-09-14T08:40:14.299Z,4.60
2017-09-14T08:41:16.782Z,3.03
2017-09-14T08:42:19.284Z,4.47
2017-09-14T08:43:21.783Z,4.68
2017-09-14T08:44:24.289Z,4.87
2017-09-14T08:45:26.783Z,2.92
2017-09-14T08:46:30.967Z,3.37
2017-09-14T08:47:34.897Z,5.03
2017-09-14T08:48:38.302Z,5.12
2017-09-14T08:49:41.560Z,3.42
2017-09-14T08:50:44.064Z,5.97
2017-09-14T08:51:46.556Z,4.62
2017-09-14T08:52:49.132Z,7.85
2017-09-14T08:53:51.657Z,7.43
2017-09-14T08:54:54.151Z,6.65
2017-09-14T08:55:56.668Z,5.05
2017-09-14T08:56:59.779Z,9.73
2017-09-14T08:58:02.291Z,5.40
2017-09-14T08:59:04.913Z,8.57
2017-09-14T09:00:07.400Z,6.85
2017-09-14T09:01:09.990Z,9.02
2017-09-14T09:02:13.434Z,7.78
2017-09-14T09:03:16.621Z,4.72
2017-09-14T09:04:19.132Z,4.55
2017-09-14T09:05:21.629Z,10.25
2017-09-14T09:06:24.879Z,6.90
2017-09-14T09:07:27.456Z,7.03
2017-09-14T09:08:29.949Z,6.82
2017-09-14T09:09:34.330Z,8.85
2017-09-14T09:10:37.675Z,8.30
2017-09-14T09:11:40.283Z,5.57
2017-09-14T09:12:42.921Z,4.45
2017-09-14T09:13:45.488Z,5.43
2017-09-14T09:14:48.104Z,5.87
2017-09-14T09:15:51.609Z,6.53
2017-09-14T09:16:54.107Z,6.75
2017-09-14T09:17:56.830Z,2.35
2017-09-14T09:18:59.392Z,6.70
2017-09-14T09:20:02.724Z,7.90
2017-09-14T09:21:05.370Z,2.80
2017-09-14T09:22:07.860Z,6.78
2017-09-14T09:23:10.490Z,4.30
2017-09-14T09:24:14.001Z,6.00
2017-09-14T09:25:16.532Z,2.83
2017-09-14T09:26:19.011Z,5.53
2017-09-14T09:27:22.275Z,3.97
2017-09-14T09:28:24.822Z,2.22
2017-09-14T09:29:29.621Z,2.85
2017-09-14T09:30:32.188Z,3.08
2017-09-14T09:31:34.700Z,3.62
2017-09-14T09:32:38.069Z,6.00
2017-09-14T09:33:40.558Z,1.98
2017-09-14T09:34:43.937Z,1.95
2017-09-14T09:35:47.302Z,4.35
2017-09-14T09:36:49.781Z,4.32
2017-09-14T09:37:52.256Z,5.82
2017-09-14T09:38:55.783Z,3.53
2017-09-14T09:39:58.302Z,1.73
2017-09-14T09:41:02.704Z,4.93
2017-09-14T09:42:05.206Z,6.97
2017-09-14T09:43:07.946Z,1.90
2017-09-14T09:44:10.420Z,3.80
2017-09-14T09:45:15.140Z,3.37
2017-09-14T09:46:18.383Z,2.65
2017-09-14T09:47:20.972Z,3.85
2017-09-14T09:48:24.234Z,2.33
2017-09-14T09:49:26.719Z,5.80
2017-09-14T09:50:29.252Z,2.92
2017-09-14T09:51:31.857Z,4.55
2017-09-14T09:52:34.369Z,3.97
2017-09-14T09:53:36.979Z,3.55
2017-09-14T09:54:39.469Z,2.50
2017-09-14T09:55:42.849Z,2.55
2017-09-14T09:56:46.121Z,4.05
2017-09-14T09:57:48.772Z,2.08
2017-09-14T09:58:51.276Z,2.97
2017-09-14T09:59:54.673Z,2.05
2017-09-14T10:00:57.955Z,1.90
2017-09-14T10:02:00.719Z,2.50
2017-09-14T10:03:04.084Z,1.40
2017-09-14T10:04:07.354Z,1.25
2017-09-14T10:05:09.905Z,5.60
2017-09-14T10:06:12.694Z,3.42
2017-09-14T10:07:15.169Z,2.30
2017-09-14T10:08:17.679Z,2.00
2017-09-14T10:09:20.240Z,1.67
2017-09-14T10:10:22.864Z,2.25
2017-09-14T10:11:25.355Z,2.17
2017-09-14T10:12:28.615Z,2.30
2017-09-14T10:13:31.127Z,1.62
2017-09-14T10:14:33.900Z,3.83
2017-09-14T10:15:36.408Z,2.08
2017-09-14T10:16:38.897Z,11.55
2017-09-14T10:17:42.172Z,1.83
2017-09-14T10:18:44.836Z,1.85
2017-09-14T10:19:47.314Z,1.27
2017-09-14T10:20:49.995Z,2.35
2017-09-14T10:21:53.304Z,1.73
2017-09-14T10:22:55.929Z,1.90
2017-09-14T10:23:58.481Z,3.80
2017-09-14T10:25:00.970Z,4.00
2017-09-14T10:26:03.475Z,1.17
2017-09-14T10:27:05.974Z,1.15
2017-09-14T10:28:08.502Z,1.92
2017-09-14T10:29:11.143Z,1.00
2017-09-14T10:30:14.625Z,2.95
2017-09-14T10:31:17.206Z,1.62
2017-09-14T10:32:20.465Z,1.65
2017-09-14T10:33:23.033Z,1.60
2017-09-14T10:34:25.577Z,3.95
2017-09-14T10:35:28.250Z,1.90
2017-09-14T10:36:30.877Z,2.92
2017-09-14T10:37:33.408Z,1.35
2017-09-14T10:38:35.897Z,3.30
2017-09-14T10:39:39.134Z,2.90
2017-09-14T10:40:41.632Z,2.10
2017-09-14T10:41:44.904Z,2.30
2017-09-14T10:42:47.414Z,1.83
2017-09-14T10:43:49.906Z,2.53
2017-09-14T10:44:52.413Z,6.25
2017-09-14T10:45:55.671Z,5.40
2017-09-14T10:46:58.167Z,1.67
2017-09-14T10:48:01.417Z,1.02
2017-09-14T10:49:03.891Z,1.35
2017-09-14T10:50:06.467Z,2.28
2017-09-14T10:51:09.751Z,1.10
2017-09-14T10:52:13.626Z,2.78
2017-09-14T10:53:16.118Z,2.33
2017-09-14T10:54:19.361Z,1.25
2017-09-14T10:55:21.859Z,1.85
2017-09-14T10:56:25.233Z,1.40
2017-09-14T10:57:27.789Z,1.73
2017-09-14T10:58:30.303Z,1.02
2017-09-14T10:59:33.568Z,1.85
2017-09-14T11:00:37.008Z,3.90
2017-09-14T11:01:39.605Z,1.83
2017-09-14T11:02:42.758Z,2.58
2017-09-14T11:03:45.266Z,2.65
2017-09-14T11:04:47.838Z,2.03
2017-09-14T11:05:51.208Z,3.85
2017-09-14T11:06:53.754Z,2.35
2017-09-14T11:07:56.342Z,1.70
2017-09-14T11:08:58.911Z,1.58
2017-09-14T11:10:01.408Z,3.00
2017-09-14T11:11:03.942Z,2.00
2017-09-14T11:12:06.433Z,1.55
2017-09-14T11:13:09.692Z,2.03
2017-09-14T11:14:12.651Z,2.17
2017-09-14T11:15:15.197Z,1.67
2017-09-14T11:16:17.680Z,3.58
2017-09-14T11:17:20.268Z,3.62
2017-09-14T11:18:22.757Z,3.72
2017-09-14T11:19:26.035Z,2.85
2017-09-14T11:20:29.405Z,3.78
2017-09-14T11:21:31.957Z,2.95
2017-09-14T11:22:35.161Z,1.75
2017-09-14T11:23:38.423Z,1.58
2017-09-14T11:24:41.015Z,5.10
2017-09-14T11:25:44.259Z,5.12
2017-09-14T11:26:46.780Z,5.47
2017-09-14T11:27:50.112Z,5.43
2017-09-14T11:28:52.601Z,1.77
2017-09-14T11:29:55.128Z,6.47
2017-09-14T11:30:57.643Z,4.03
2017-09-14T11:32:00.896Z,3.33
2017-09-14T11:33:03.409Z,3.35
2017-09-14T11:34:05.937Z,1.80
2017-09-14T11:35:08.419Z,3.65
2017-09-14T11:36:11.802Z,3.58
2017-09-14T11:37:15.048Z,2.75
2017-09-14T11:38:17.887Z,3.37
2017-09-14T11:39:20.387Z,5.50
2017-09-14T11:40:23.023Z,3.37
2017-09-14T11:41:25.528Z,3.87
2017-09-14T11:42:28.085Z,2.10
2017-09-14T11:43:30.589Z,3.55
2017-09-14T11:44:33.175Z,1.65
2017-09-14T11:45:36.422Z,5.47
2017-09-14T11:46:38.993Z,4.60
2017-09-14T11:47:41.480Z,3.37
2017-09-14T11:48:44.773Z,2.58
2017-09-14T11:49:48.016Z,1.75
2017-09-14T11:50:50.590Z,4.12
2017-09-14T11:51:53.072Z,4.12
2017-09-14T11:52:56.345Z,5.00
2017-09-14T11:53:58.840Z,1.60
2017-09-14T11:55:02.179Z,2.42
2017-09-14T11:56:04.673Z,4.45
2017-09-14T11:57:07.199Z,6.78
2017-09-14T11:58:09.809Z,8.35
2017-09-14T11:59:13.220Z,6.03
2017-09-14T12:00:15.725Z,3.67
2017-09-14T12:01:18.304Z,4.60
2017-09-14T12:02:20.781Z,3.70
2017-09-14T12:03:23.339Z,4.37
2017-09-14T12:04:25.836Z,4.22
2017-09-14T12:05:29.201Z,5.47
2017-09-14T12:06:32.531Z,5.70
2017-09-14T12:07:35.022Z,5.43
2017-09-14T12:08:37.501Z,3.95
2017-09-14T12:09:41.683Z,5.93
2017-09-14T12:10:44.205Z,3.12
2017-09-14T12:11:47.559Z,3.22
2017-09-14T12:12:50.049Z,8.27
2017-09-14T12:13:53.405Z,5.07
2017-09-14T12:14:55.932Z,3.60
2017-09-14T12:15:58.447Z,4.65
2017-09-14T12:17:01.028Z,6.15
2017-09-14T12:18:04.292Z,4.97
2017-09-14T12:19:06.783Z,8.40
2017-09-14T12:20:10.119Z,3.00
2017-09-14T12:21:12.733Z,4.45
2017-09-14T12:22:16.146Z,6.65
2017-09-14T12:23:18.715Z,4.53
2017-09-14T12:24:22.021Z,4.97
2017-09-14T12:25:24.605Z,4.07
2017-09-14T12:26:28.288Z,14.80
2017-09-14T12:27:30.788Z,4.78
2017-09-14T12:28:34.077Z,9.50
2017-09-14T12:29:37.341Z,3.42
2017-09-14T12:30:39.998Z,2.60
2017-09-14T12:31:42.475Z,3.08
2017-09-14T12:32:45.057Z,4.07
2017-09-14T12:33:47.572Z,4.53
2017-09-14T12:34:50.145Z,5.70
2017-09-14T12:35:52.642Z,2.28
2017-09-14T12:36:55.204Z,6.80
2017-09-14T12:37:57.728Z,2.78
2017-09-14T12:39:00.329Z,3.55
2017-09-14T12:40:02.815Z,2.20
2017-09-14T12:41:05.328Z,4.95
2017-09-14T12:42:07.870Z,4.87
2017-09-14T12:43:11.210Z,3.87
2017-09-14T12:44:13.776Z,7.95
2017-09-14T12:45:17.912Z,6.20
2017-09-14T12:46:21.252Z,13.30
2017-09-14T12:47:24.017Z,5.12
2017-09-14T12:48:26.542Z,1.98
2017-09-14T12:49:29.898Z,3.97
2017-09-14T12:50:32.393Z,2.85
2017-09-14T12:51:35.798Z,3.72
2017-09-14T12:52:38.347Z,4.75
2017-09-14T12:53:41.703Z,1.55
2017-09-14T12:54:44.243Z,2.47
2017-09-14T12:55:46.856Z,4.00
2017-09-14T12:56:49.977Z,9.98
2017-09-14T12:57:52.577Z,5.00
2017-09-14T12:58:55.212Z,6.53
2017-09-14T12:59:57.693Z,8.13
2017-09-14T13:01:00.195Z,4.07
2017-09-14T13:02:02.748Z,2.67
2017-09-14T13:03:05.235Z,1.80
2017-09-14T13:04:08.684Z,3.50
2017-09-14T13:05:11.193Z,3.12
2017-09-14T13:06:14.577Z,5.30
2017-09-14T13:07:17.077Z,5.95
2017-09-14T13:08:19.709Z,3.05
2017-09-14T13:09:22.188Z,3.37
2017-09-14T13:10:25.542Z,3.33
2017-09-14T13:11:28.033Z,4.07
2017-09-14T13:12:31.393Z,3.10
2017-09-14T13:13:34.008Z,1.95
2017-09-14T13:14:36.722Z,3.25
2017-09-14T13:15:39.309Z,3.08
2017-09-14T13:16:44.789Z,4.62
2017-09-14T13:17:47.333Z,2.67
2017-09-14T13:18:50.761Z,5.07
2017-09-14T13:19:53.856Z,4.03
2017-09-14T13:20:57.817Z,1.62
2017-09-14T13:22:00.314Z,3.15
2017-09-14T13:23:02.903Z,5.32
2017-09-14T13:24:05.424Z,3.40
2017-09-14T13:25:08.032Z,2.83
2017-09-14T13:26:10.642Z,2.55
2017-09-14T13:27:13.152Z,2.20
2017-09-14T13:28:15.742Z,3.70
2017-09-14T13:29:18.381Z,2.50
2017-09-14T13:30:21.356Z,2.50
2017-09-14T13:31:23.843Z,5.18
2017-09-14T13:32:26.410Z,4.70
2017-09-14T13:33:28.891Z,2.37
2017-09-14T13:34:32.282Z,1.85
2017-09-14T13:35:35.565Z,3.70
2017-09-14T13:36:38.037Z,2.20
2017-09-14T13:37:41.302Z,3.67
2017-09-14T13:38:43.796Z,3.65
2017-09-14T13:39:46.368Z,3.17